Time;durP1;ratioP1;P1;durP2;ratioP2;P2;SDS_P1;SDS_P2;PMS_P1;PMS_P2;Temp;Humidity;BMP_temperature;BMP_pressure;BME280_temperature;BME280_humidity;BME280_pressure;Samples;Min_cycle;Max_cycle;Signal;HPM_P1;HPM_P2
2023/01/14 00:01:04;;;;;;;2.40;1.43;;;;;;;5.85;91.75;101418.81;4916094;23;20019;-86
2023/01/14 00:03:31;;;;;;;3.65;1.60;;;;;;;5.79;92.08;101418.69;4935661;29;20038;-86
2023/01/14 00:05:58;;;;;;;5.22;1.50;;;;;;;5.72;91.81;101421.22;4921947;29;20564;-87
2023/01/14 00:08:24;;;;;;;3.83;1.90;;;;;;;5.67;92.11;101440.88;4917352;29;20039;-87
2023/01/14 00:10:49;;;;;;;4.28;1.85;;;;;;;5.61;92.22;101437.34;4935309;29;20023;-86
2023/01/14 00:13:16;;;;;;;7.07;1.80;;;;;;;5.55;92.47;101431.25;4935646;23;20044;-87
2023/01/14 00:15:56;;;;;;;6.05;1.85;;;;;;;5.50;92.18;101442.34;4913496;29;20036;-87
2023/01/14 00:18:27;;;;;;;2.83;1.50;;;;;;;5.46;92.45;101437.97;4916230;29;20035;-86
2023/01/14 00:21:06;;;;;;;5.68;2.10;;;;;;;5.41;92.57;101432.75;4915871;29;20070;-87
2023/01/14 00:23:45;;;;;;;4.85;1.73;;;;;;;5.38;92.64;101437.84;4918286;29;20039;-87
2023/01/14 00:26:13;;;;;;;5.93;2.00;;;;;;;5.35;93.07;101442.94;4915916;29;20477;-87
2023/01/14 00:28:39;;;;;;;4.95;1.80;;;;;;;5.31;93.07;101444.59;4916203;29;20040;-87
2023/01/14 00:31:22;;;;;;;6.35;1.90;;;;;;;5.30;93.11;101442.88;4916426;29;20398;-86
2023/01/14 00:33:49;;;;;;;5.15;2.13;;;;;;;5.26;93.01;101436.81;4915937;29;20024;-86
2023/01/14 00:36:16;;;;;;;4.53;1.80;;;;;;;5.25;93.24;101426.50;4915853;29;20051;-86
2023/01/14 00:38:42;;;;;;;3.47;1.60;;;;;;;5.24;93.25;101425.63;4916651;29;20449;-87
2023/01/14 00:41:07;;;;;;;1.95;1.30;;;;;;;5.24;93.12;101437.63;4915745;29;20056;-86
2023/01/14 00:43:46;;;;;;;4.15;1.90;;;;;;;5.19;93.45;101437.56;4917541;29;20521;-86
2023/01/14 00:46:20;;;;;;;9.75;2.10;;;;;;;5.17;93.23;101440.97;4938957;29;20421;-86
2023/01/14 00:48:45;;;;;;;8.95;2.10;;;;;;;5.16;93.29;101441.78;4938049;29;20028;-86
2023/01/14 00:51:12;;;;;;;7.43;1.95;;;;;;;5.11;93.41;101439.16;4938527;29;20115;-86
2023/01/14 00:53:47;;;;;;;4.38;1.75;;;;;;;5.07;93.68;101443.34;4938950;29;20388;-86
2023/01/14 00:56:16;;;;;;;9.48;2.10;;;;;;;5.02;94.09;101439.84;4937872;29;20126;-86
2023/01/14 00:58:41;;;;;;;7.15;2.28;;;;;;;4.98;93.76;101434.63;4938371;29;20038;-87
2023/01/14 01:01:08;;;;;;;8.00;2.17;;;;;;;4.95;93.87;101435.44;4919988;29;20119;-86
2023/01/14 01:03:46;;;;;;;7.97;2.17;;;;;;;4.92;93.99;101436.25;4919048;29;20040;-87
2023/01/14 01:06:13;;;;;;;6.40;2.10;;;;;;;4.92;94.57;101446.53;4900366;29;20115;-86
2023/01/14 01:08:39;;;;;;;12.80;2.53;;;;;;;4.95;94.47;101445.75;4900624;29;20039;-86
2023/01/14 01:11:05;;;;;;;10.48;2.60;;;;;;;4.92;94.95;101441.38;4899943;29;20037;-87
2023/01/14 01:13:43;;;;;;;9.25;2.28;;;;;;;4.95;95.18;101448.31;4900192;29;20119;-87
2023/01/14 01:16:15;;;;;;;7.50;2.42;;;;;;;4.91;95.34;101447.38;4901283;29;20490;-86
2023/01/14 01:18:40;;;;;;;7.60;2.75;;;;;;;4.89;95.45;101451.63;4925223;29;20039;-87
2023/01/14 01:21:22;;;;;;;5.57;2.55;;;;;;;4.89;95.25;101443.94;4937915;29;20020;-86
2023/01/14 01:23:47;;;;;;;9.15;2.17;;;;;;;4.86;95.44;101442.97;4938158;29;20035;-86
2023/01/14 01:26:18;;;;;;;7.32;2.05;;;;;;;4.83;96.02;101442.94;4937438;29;20020;-87
2023/01/14 01:28:57;;;;;;;9.30;2.30;;;;;;;4.86;96.03;101437.84;4938536;29;20106;-87
2023/01/14 01:31:23;;;;;;;9.25;2.10;;;;;;;4.85;96.02;101443.81;4938749;29;20505;-87
2023/01/14 01:33:49;;;;;;;9.38;2.25;;;;;;;4.81;96.62;101442.03;4930647;29;20096;-87
2023/01/14 01:36:17;;;;;;;9.98;2.30;;;;;;;4.82;96.25;101441.22;4951995;23;20129;-86
2023/01/14 01:38:45;;;;;;;10.27;2.75;;;;;;;4.78;96.69;101441.13;4918767;29;20374;-86
2023/01/14 01:41:28;;;;;;;11.43;2.58;;;;;;;4.77;96.42;101434.25;4918438;29;20024;-86
2023/01/14 01:44:23;;;;;;;11.95;2.60;;;;;;;4.77;96.94;101444.56;4919326;29;20029;-87
2023/01/14 01:46:48;;;;;;;9.25;2.40;;;;;;;4.75;96.34;101435.94;4883156;29;20032;-87
2023/01/14 01:49:17;;;;;;;7.95;2.47;;;;;;;4.74;96.82;101441.06;4918808;29;20084;-86
2023/01/14 01:51:50;;;;;;;10.00;2.55;;;;;;;4.71;97.55;101436.75;4917823;29;20036;-87
2023/01/14 01:54:19;;;;;;;12.38;2.72;;;;;;;4.69;97.81;101443.56;4899525;29;20100;-87
2023/01/14 01:56:46;;;;;;;12.93;2.95;;;;;;;4.70;98.23;101441.84;4900222;29;20024;-87
2023/01/14 01:59:15;;;;;;;14.07;2.88;;;;;;;4.67;98.38;101445.22;4899223;29;20025;-86
2023/01/14 02:01:42;;;;;;;11.32;2.78;;;;;;;4.66;97.81;101437.50;4914464;29;20036;-86
2023/01/14 02:04:09;;;;;;;10.65;2.80;;;;;;;4.67;97.79;101437.50;4918537;29;20036;-86
2023/01/14 02:06:34;;;;;;;9.55;2.65;;;;;;;4.63;98.32;101430.56;4917718;29;20039;-87
2023/01/14 02:09:00;;;;;;;9.00;2.58;;;;;;;4.64;98.32;101432.28;4919251;29;20036;-87
2023/01/14 02:11:58;;;;;;;12.48;3.05;;;;;;;4.65;97.97;101426.31;4937452;29;20055;-87
2023/01/14 02:14:55;;;;;;;10.30;2.17;;;;;;;4.60;98.62;101418.53;4936920;29;20083;-87
2023/01/14 02:17:43;;;;;;;;;;;;;;;4.60;98.48;101412.53;4937499;29;20102;-86
2023/01/14 02:20:41;;;;;;;9.23;2.33;;;;;;;4.59;98.06;101406.50;4936852;29;19921;-86
2023/01/14 02:23:28;;;;;;;9.93;2.20;;;;;;;4.59;97.54;101401.38;4898402;29;20063;-87
2023/01/14 02:26:24;;;;;;;9.77;2.55;;;;;;;4.61;97.94;101391.97;4921133;29;20036;-87
2023/01/14 02:29:16;;;;;;;11.32;2.40;;;;;;;4.59;97.97;101375.66;4918234;29;20032;-87
2023/01/14 02:32:13;;;;;;;8.85;2.20;;;;;;;4.58;97.27;101371.34;4918055;29;20028;-87
2023/01/14 02:34:56;;;;;;;7.20;2.20;;;;;;;4.56;97.65;101360.16;4918910;29;20032;-87
2023/01/14 02:37:36;;;;;;;7.32;2.13;;;;;;;4.54;97.41;101354.16;4918891;29;20051;-87
2023/01/14 02:40:20;;;;;;;9.18;2.00;;;;;;;4.53;97.85;101354.09;4918090;29;20028;-87
2023/01/14 02:45:48;;;;;;;7.85;2.05;;;;;;;4.51;97.85;101345.50;4899140;29;20109;-87
2023/01/14 02:48:15;;;;;;;6.30;2.05;;;;;;;4.50;98.59;101346.38;4897957;29;20076;-86
2023/01/14 02:50:41;;;;;;;7.45;2.30;;;;;;;4.50;97.91;101339.50;4906394;29;20035;-86
2023/01/14 02:53:12;;;;;;;9.15;2.15;;;;;;;4.48;97.88;101342.06;4917169;29;20028;-86
2023/01/14 02:55:38;;;;;;;9.93;2.28;;;;;;;4.46;98.54;101341.16;4916302;29;20119;-87
2023/01/14 02:58:35;;;;;;;6.97;2.00;;;;;;;4.48;98.25;101334.34;4916811;29;20092;-86
2023/01/14 03:01:38;;;;;;;8.80;2.10;;;;;;;4.52;97.62;101335.25;4916790;29;20429;-87
2023/01/14 03:04:22;;;;;;;9.02;2.40;;;;;;;4.51;97.98;101332.66;4917618;29;20040;-87
2023/01/14 03:07:06;;;;;;;11.40;2.60;;;;;;;4.52;98.15;101331.81;4916758;29;20024;-87
2023/01/14 03:09:47;;;;;;;8.63;2.40;;;;;;;4.50;97.86;101328.38;4917282;29;20047;-87
2023/01/14 03:12:30;;;;;;;10.43;2.53;;;;;;;4.52;97.77;101326.66;4917474;29;20111;-86
2023/01/14 03:15:23;;;;;;;14.88;2.70;;;;;;;4.54;98.38;101322.44;4917667;29;20083;-87
2023/01/14 03:18:01;;;;;;;10.50;2.40;;;;;;;4.51;98.39;101310.41;4906169;29;20051;-87
2023/01/14 03:20:33;;;;;;;9.13;2.97;;;;;;;4.53;98.37;101310.41;4936119;29;20027;-86
2023/01/14 03:23:04;;;;;;;10.02;2.33;;;;;;;4.52;99.54;101298.41;4919155;29;20036;-86
2023/01/14 03:25:32;;;;;;;8.68;2.25;;;;;;;4.53;98.91;101295.00;4917793;29;20028;-87
2023/01/14 03:28:01;;;;;;;8.82;2.17;;;;;;;4.53;99.16;101297.56;4917076;29;20038;-87
2023/01/14 03:30:32;;;;;;;9.10;2.47;;;;;;;4.54;98.99;101301.88;4916439;29;20031;-87
2023/01/14 03:33:08;;;;;;;10.45;2.38;;;;;;;4.53;99.39;101295.00;4916798;29;20062;-87
2023/01/14 03:35:41;;;;;;;6.38;2.20;;;;;;;4.56;98.58;101285.63;4927694;29;20028;-87
2023/01/14 03:38:15;;;;;;;9.38;2.10;;;;;;;4.56;99.34;101283.03;4935180;29;20496;-87
2023/01/14 03:40:42;;;;;;;9.15;2.20;;;;;;;4.58;99.52;101285.66;4936236;29;20052;-87
2023/01/14 03:43:19;;;;;;;10.80;2.38;;;;;;;4.59;99.65;101284.81;4935780;29;20020;-86
2023/01/14 03:45:46;;;;;;;7.97;2.33;;;;;;;4.61;100.00;101280.56;4935815;29;20512;-87
2023/01/14 03:48:12;;;;;;;6.50;1.85;;;;;;;4.61;100.00;101286.56;4936025;29;20389;-87
2023/01/14 03:50:43;;;;;;;7.20;2.17;;;;;;;4.62;100.00;101285.72;4922110;29;20031;-87
2023/01/14 03:53:19;;;;;;;9.80;2.28;;;;;;;4.66;100.00;101280.66;4916797;29;20036;-86
2023/01/14 03:55:55;;;;;;;8.13;2.05;;;;;;;4.71;99.40;101261.00;4917115;29;20063;-86
2023/01/14 03:58:50;;;;;;;10.35;2.17;;;;;;;4.71;100.00;101261.00;4916569;29;20158;-87
2023/01/14 04:01:23;;;;;;;12.95;2.25;;;;;;;4.73;100.00;101261.91;4916975;29;20075;-87
2023/01/14 04:03:49;;;;;;;10.90;2.25;;;;;;;4.78;99.76;101258.56;4916699;29;20024;-87
2023/01/14 04:06:14;;;;;;;8.43;2.00;;;;;;;4.79;99.69;101254.25;4916211;29;20083;-86
2023/01/14 04:08:39;;;;;;;10.30;2.58;;;;;;;4.80;99.98;101243.13;4916772;29;20133;-87
2023/01/14 04:11:05;;;;;;;8.68;2.20;;;;;;;4.84;99.63;101239.78;4916504;29;20043;-86
2023/01/14 04:16:14;;;;;;;6.93;2.08;;;;;;;4.83;100.00;101214.91;4916645;29;20087;-87
2023/01/14 04:18:39;;;;;;;10.98;2.25;;;;;;;4.84;100.00;101214.06;4919291;29;20024;-87
2023/01/14 04:21:05;;;;;;;9.43;2.35;;;;;;;4.86;100.00;101214.97;4919682;29;20381;-86
2023/01/14 04:23:30;;;;;;;12.15;2.53;;;;;;;4.89;100.00;101206.41;4920485;29;20032;-87
2023/01/14 04:25:57;;;;;;;8.35;2.22;;;;;;;4.90;99.80;101203.00;4920113;29;20032;-87
2023/01/14 04:28:22;;;;;;;;;;;;;;;4.88;100.00;101195.28;4920395;29;20035;-87
2023/01/14 04:30:49;;;;;;;10.13;2.30;;;;;;;4.88;100.00;101197.84;4920166;29;19915;-87
2023/01/14 04:33:14;;;;;;;11.93;2.83;;;;;;;4.92;99.91;101188.47;4919538;29;20784;-87
2023/01/14 04:35:39;;;;;;;8.38;2.00;;;;;;;4.86;100.00;101181.53;4920159;29;20283;-87
2023/01/14 04:38:04;;;;;;;14.60;2.40;;;;;;;4.93;99.12;101177.31;4919657;29;20084;-86
2023/01/14 04:40:30;;;;;;;12.18;2.63;;;;;;;4.87;100.00;101174.66;4919152;29;20039;-86
2023/01/14 04:42:55;;;;;;;11.35;2.97;;;;;;;4.87;99.75;101172.09;4926023;29;20039;-87
2023/01/14 04:45:23;;;;;;;10.55;2.50;;;;;;;4.81;99.91;101172.88;4931445;29;20102;-87
2023/01/14 04:47:55;;;;;;;12.20;2.80;;;;;;;4.88;99.36;101173.81;4938456;29;20031;-87
2023/01/14 04:50:33;;;;;;;9.98;2.80;;;;;;;4.83;99.66;101170.34;4938281;29;20114;-87
2023/01/14 04:53:09;;;;;;;15.60;2.80;;;;;;;4.84;99.51;101179.78;4939018;29;20047;-87
2023/01/14 04:55:39;;;;;;;11.75;2.30;;;;;;;4.79;99.92;101170.28;4938539;29;20167;-87
2023/01/14 04:58:07;;;;;;;10.63;2.65;;;;;;;4.77;99.61;101169.38;4931471;29;20024;-87
2023/01/14 05:00:32;;;;;;;9.27;2.35;;;;;;;4.76;100.00;101164.25;4930695;29;20030;-87
2023/01/14 05:03:01;;;;;;;14.32;2.60;;;;;;;4.81;100.00;101156.59;4938437;29;20028;-87
2023/01/14 05:05:26;;;;;;;12.10;2.65;;;;;;;4.74;100.00;101153.91;4938747;29;20496;-87
2023/01/14 05:07:51;;;;;;;10.60;2.33;;;;;;;4.73;100.00;101152.19;4921734;29;20058;-87
2023/01/14 05:10:17;;;;;;;12.30;2.70;;;;;;;4.75;100.00;101141.94;4918406;29;20028;-87
2023/01/14 05:12:55;;;;;;;9.82;2.38;;;;;;;4.74;100.00;101135.91;4918945;29;20123;-87
2023/01/14 05:15:25;;;;;;;12.95;2.63;;;;;;;4.77;100.00;101133.41;4918765;29;20039;-87
2023/01/14 05:17:51;;;;;;;6.95;2.20;;;;;;;4.75;100.00;101135.06;4919669;29;20051;-87
2023/01/14 05:20:16;;;;;;;10.32;2.65;;;;;;;4.76;100.00;101136.81;4919462;29;20058;-86
2023/01/14 05:22:42;;;;;;;8.63;2.30;;;;;;;4.76;100.00;101117.97;4918796;29;20021;-87
2023/01/14 05:25:07;;;;;;;14.50;2.65;;;;;;;4.77;100.00;101110.25;4918874;29;20031;-87
2023/01/14 05:27:48;;;;;;;15.30;3.35;;;;;;;4.81;100.00;101106.00;4919119;29;20116;-86
2023/01/14 05:30:14;;;;;;;10.68;2.10;;;;;;;4.83;100.00;101099.19;4916989;29;20028;-87
2023/01/14 05:32:39;;;;;;;11.25;2.55;;;;;;;4.79;100.00;101088.00;4918627;29;20032;-86
2023/01/14 05:35:05;;;;;;;7.85;2.33;;;;;;;4.86;100.00;101085.47;4932495;29;20461;-86
2023/01/14 05:37:32;;;;;;;11.38;2.28;;;;;;;4.85;100.00;101073.47;4937107;29;20040;-87
2023/01/14 05:39:57;;;;;;;12.18;2.50;;;;;;;4.88;100.00;101066.69;4926113;29;20092;-86
2023/01/14 05:47:53;;;;;;;13.05;2.50;;;;;;;4.92;100.00;101042.69;4919616;29;20508;-87
2023/01/14 05:50:18;;;;;;;12.02;2.53;;;;;;;4.92;100.00;101037.56;4917994;29;20040;-86
2023/01/14 05:52:43;;;;;;;11.32;2.42;;;;;;;4.95;100.00;101039.31;4937438;29;20072;-87
2023/01/14 05:55:08;;;;;;;13.27;2.88;;;;;;;4.98;100.00;101029.03;4936318;29;20186;-87
2023/01/14 05:57:34;;;;;;;8.27;2.33;;;;;;;5.00;100.00;101017.06;4937613;29;20036;-87
2023/01/14 05:59:59;;;;;;;8.63;2.10;;;;;;;4.97;100.00;101021.31;4937692;29;20031;-87
2023/01/14 06:08:35;;;;;;;10.05;2.83;;;;;;;5.06;100.00;100999.13;4887698;29;20044;-86
2023/01/14 06:11:01;;;;;;;11.63;2.72;;;;;;;5.06;100.00;101000.84;4897513;29;20032;-87
2023/01/14 06:13:26;;;;;;;9.77;2.67;;;;;;;5.08;100.00;100994.84;4906723;29;20458;-86
2023/01/14 06:15:52;;;;;;;9.90;2.40;;;;;;;5.11;100.00;100981.19;4918267;29;20024;-87
2023/01/14 06:18:22;;;;;;;14.27;3.08;;;;;;;5.17;99.55;100982.94;4918182;29;20032;-86
2023/01/14 06:20:53;;;;;;;13.02;2.53;;;;;;;5.17;99.83;100968.34;4918005;29;20024;-86
2023/01/14 06:23:20;;;;;;;12.43;2.42;;;;;;;5.18;99.86;100970.09;4917956;29;20048;-87
2023/01/14 06:25:47;;;;;;;10.88;2.47;;;;;;;5.27;99.42;100959.00;4918219;29;20175;-87
2023/01/14 06:28:13;;;;;;;;;;;;;;;5.27;99.20;100961.59;4918121;29;20029;-87
2023/01/14 06:30:38;;;;;;;12.37;2.57;;;;;;;5.35;99.08;100948.75;4918332;29;19915;-87
2023/01/14 06:33:06;;;;;;;13.03;2.70;;;;;;;5.28;99.78;100947.00;4917424;29;20058;-87
2023/01/14 06:35:31;;;;;;;15.55;3.20;;;;;;;5.29;99.24;100941.88;4917830;29;20032;-86
2023/01/14 06:37:57;;;;;;;11.75;2.60;;;;;;;5.31;100.00;100926.44;4918179;29;20055;-87
2023/01/14 06:40:22;;;;;;;13.82;3.35;;;;;;;5.28;100.00;100928.97;4916123;29;20493;-85
2023/01/14 06:42:47;;;;;;;9.50;2.30;;;;;;;5.25;100.00;100920.38;4927136;29;20139;-86
2023/01/14 06:45:12;;;;;;;14.02;2.85;;;;;;;5.25;100.00;100909.25;4936840;29;20027;-87
2023/01/14 06:47:39;;;;;;;7.20;2.20;;;;;;;5.27;100.00;100899.81;4936156;29;20047;-84
2023/01/14 06:50:05;;;;;;;15.93;3.13;;;;;;;5.34;100.00;100888.72;4936030;29;20024;-84
2023/01/14 06:52:30;;;;;;;11.25;2.72;;;;;;;5.33;100.00;100894.72;4932787;29;20833;-84
2023/01/14 06:54:56;;;;;;;13.40;2.60;;;;;;;5.38;100.00;100889.59;4916345;29;20031;-84
2023/01/14 06:57:22;;;;;;;10.65;2.30;;;;;;;5.37;100.00;100888.75;4916366;29;20373;-84
2023/01/14 06:59:48;;;;;;;10.57;2.55;;;;;;;5.35;100.00;100884.41;4917303;29;20067;-85
2023/01/14 07:02:13;;;;;;;7.70;2.33;;;;;;;5.33;100.00;100879.25;4915948;29;20055;-85
2023/01/14 07:04:39;;;;;;;15.50;3.15;;;;;;;5.39;100.00;100869.03;4916985;29;20562;-84
2023/01/14 07:07:05;;;;;;;10.50;2.73;;;;;;;5.37;100.00;100865.56;4916683;29;20413;-84
2023/01/14 07:09:30;;;;;;;12.98;2.60;;;;;;;5.41;100.00;100851.84;4916645;29;20028;-85
2023/01/14 07:11:56;;;;;;;10.93;2.43;;;;;;;5.36;100.00;100856.13;4917150;29;20056;-84
2023/01/14 07:14:21;;;;;;;7.30;2.40;;;;;;;5.38;100.00;100846.72;4915943;29;20863;-85
2023/01/14 07:16:46;;;;;;;5.97;1.77;;;;;;;5.36;100.00;100842.38;4915749;29;20126;-85
2023/01/14 07:19:12;;;;;;;8.00;2.30;;;;;;;5.42;100.00;100832.16;4916645;29;20028;-86
2023/01/14 07:21:38;;;;;;;14.13;2.67;;;;;;;5.40;100.00;100816.66;4916800;29;20127;-85
2023/01/14 07:24:04;;;;;;;13.20;2.50;;;;;;;5.41;100.00;100805.53;4916168;29;20032;-85
2023/01/14 07:26:29;;;;;;;7.97;2.33;;;;;;;5.39;100.00;100796.09;4916783;29;20052;-85
2023/01/14 07:28:54;;;;;;;9.70;2.50;;;;;;;5.44;100.00;100797.00;4916403;29;20050;-85
2023/01/14 07:31:20;;;;;;;13.35;2.63;;;;;;;5.49;100.00;100791.84;4915811;29;20034;-86
2023/01/14 07:33:45;;;;;;;12.38;2.80;;;;;;;5.44;100.00;100780.66;4924036;29;20031;-86
2023/01/14 07:36:11;;;;;;;13.07;2.70;;;;;;;5.49;100.00;100790.13;4934679;29;20350;-85
2023/01/14 07:38:36;;;;;;;10.05;2.88;;;;;;;5.46;100.00;100787.53;4935039;29;20131;-85
2023/01/14 07:41:01;;;;;;;12.50;2.60;;;;;;;5.50;100.00;100767.84;4935715;29;20044;-85
2023/01/14 07:43:26;;;;;;;10.40;2.83;;;;;;;5.41;100.00;100773.78;4934963;29;20082;-87
2023/01/14 07:45:53;;;;;;;9.95;2.53;;;;;;;5.43;100.00;100761.81;4936497;29;20079;-91
2023/01/14 07:48:18;;;;;;;9.20;2.70;;;;;;;5.51;100.00;100744.66;4921208;29;20024;-86
2023/01/14 07:50:47;;;;;;;15.18;2.67;;;;;;;5.54;100.00;100736.09;4924094;29;20044;-91
2023/01/14 07:53:15;;;;;;;10.20;2.70;;;;;;;5.57;100.00;100723.22;4938472;29;20023;-93
2023/01/14 07:55:40;;;;;;;9.25;2.50;;;;;;;5.52;100.00;100718.06;4940552;29;20429;-93
2023/01/14 07:58:06;;;;;;;8.57;2.50;;;;;;;5.52;100.00;100712.03;4939425;29;20030;-93
2023/01/14 08:00:31;;;;;;;12.35;2.80;;;;;;;5.53;100.00;100704.34;4940780;29;20473;-94
2023/01/14 08:02:57;;;;;;;9.50;2.97;;;;;;;5.54;100.00;100698.34;4940201;29;20030;-93
2023/01/14 08:05:22;;;;;;;10.32;2.42;;;;;;;5.52;100.00;100686.31;4935419;29;20032;-92
2023/01/14 08:08:03;;;;;;;7.05;2.33;;;;;;;5.63;100.00;100666.59;4927598;29;20028;-93
2023/01/14 08:10:28;;;;;;;6.63;2.47;;;;;;;5.61;100.00;100681.22;4940610;29;20091;-93
2023/01/14 08:12:53;;;;;;;7.90;2.35;;;;;;;5.62;100.00;100662.34;4939490;29;20028;-93
2023/01/14 08:15:31;;;;;;;8.40;2.38;;;;;;;5.64;100.00;100645.16;4928094;29;20024;-93
2023/01/14 08:17:57;;;;;;;6.03;2.50;;;;;;;5.65;100.00;100635.72;4920913;29;20075;-94
2023/01/14 08:20:23;;;;;;;9.90;2.85;;;;;;;5.77;100.00;100633.16;4920563;29;20062;-94
2023/01/14 08:22:57;;;;;;;7.53;2.30;;;;;;;5.70;100.00;100618.53;4920937;29;20023;-92
2023/01/14 08:25:23;;;;;;;8.75;2.40;;;;;;;5.70;100.00;100623.69;4931521;29;20389;-94
2023/01/14 08:27:54;;;;;;;10.88;2.30;;;;;;;5.74;100.00;100624.59;4939433;29;20023;-93
2023/01/14 08:30:20;;;;;;;7.95;2.20;;;;;;;5.74;100.00;100603.97;4939359;29;20109;-93
2023/01/14 08:32:48;;;;;;;4.00;1.92;;;;;;;5.80;100.00;100594.53;4939357;29;20103;-93
2023/01/14 08:35:13;;;;;;;6.18;2.40;;;;;;;5.84;100.00;100591.09;4939702;29;20023;-93
2023/01/14 08:37:40;;;;;;;7.13;2.30;;;;;;;5.85;100.00;100590.25;4939614;29;20551;-92
2023/01/14 08:40:06;;;;;;;9.40;2.20;;;;;;;5.85;100.00;100573.94;4930268;29;20500;-87
2023/01/14 08:42:31;;;;;;;4.20;1.80;;;;;;;5.85;100.00;100568.78;4931754;29;20032;-91
2023/01/14 08:44:56;;;;;;;4.75;1.70;;;;;;;5.88;100.00;100567.06;4939649;29;20166;-89
2023/01/14 08:47:21;;;;;;;6.53;2.20;;;;;;;5.92;100.00;100541.28;4938834;29;20114;-87
2023/01/14 08:49:47;;;;;;;4.47;1.90;;;;;;;5.93;100.00;100540.44;4939333;29;20024;-90
2023/01/14 08:52:12;;;;;;;4.65;1.70;;;;;;;6.02;100.00;100525.88;4926761;29;20028;-90
2023/01/14 08:54:37;;;;;;;5.03;2.10;;;;;;;6.09;100.00;100526.72;4932685;29;20122;-90
2023/01/14 08:57:03;;;;;;;7.40;2.20;;;;;;;6.13;100.00;100528.44;4919313;29;20190;-90
2023/01/14 08:59:28;;;;;;;3.55;2.10;;;;;;;6.02;100.00;100512.97;4921541;29;20393;-91
2023/01/14 09:02:11;;;;;;;6.90;1.73;;;;;;;6.10;100.00;100494.06;4922602;29;20128;-92
2023/01/14 09:04:39;;;;;;;4.65;1.80;;;;;;;6.08;100.00;100490.66;4902546;29;20027;-91
2023/01/14 09:18:09;;;;;;;5.93;2.47;;;;;;;6.22;100.00;100463.09;4921816;29;20556;-90
2023/01/14 09:20:38;;;;;;;8.38;2.08;;;;;;;6.23;100.00;100459.66;4939343;29;20028;-91
2023/01/14 09:23:06;;;;;;;5.53;1.80;;;;;;;6.26;100.00;100451.94;4938036;29;20083;-91
2023/01/14 09:25:32;;;;;;;3.33;1.52;;;;;;;6.24;100.00;100451.09;4938864;29;20032;-91
2023/01/14 09:28:05;;;;;;;2.75;1.70;;;;;;;6.25;100.00;100437.34;4936464;29;20039;-92
2023/01/14 09:30:31;;;;;;;5.10;1.80;;;;;;;6.26;100.00;100425.28;4925986;29;20031;-92
2023/01/14 09:32:56;;;;;;;3.03;1.60;;;;;;;6.25;100.00;100427.03;4919591;29;20028;-91
2023/01/14 09:35:21;;;;;;;6.07;1.80;;;;;;;6.26;100.00;100421.00;4918422;29;20028;-92
2023/01/14 09:37:47;;;;;;;4.40;1.60;;;;;;;6.28;100.00;100401.25;4918888;29;20091;-92
2023/01/14 09:40:24;;;;;;;2.38;1.60;;;;;;;6.35;100.00;100399.50;4918477;29;20366;-92
2023/01/14 09:42:50;;;;;;;4.80;1.65;;;;;;;6.30;100.00;100394.38;4905249;29;20024;-90
2023/01/14 09:45:33;;;;;;;5.43;2.00;;;;;;;6.36;100.00;100384.88;4927397;29;20507;-91
2023/01/14 09:48:10;;;;;;;3.90;1.65;;;;;;;6.45;100.00;100380.53;4922213;29;20021;-92
2023/01/14 09:50:54;;;;;;;5.70;1.85;;;;;;;6.56;100.00;100382.19;4919090;29;20032;-91
2023/01/14 09:53:53;;;;;;;9.15;2.00;;;;;;;6.52;100.00;100370.19;4923121;29;20036;-92
2023/01/14 09:56:28;;;;;;;7.40;1.92;;;;;;;6.47;100.00;100370.22;4906829;29;20043;-91
2023/01/14 09:58:53;;;;;;;4.28;1.70;;;;;;;6.55;100.00;100363.28;4919128;29;20036;-91
2023/01/14 10:01:39;;;;;;;5.27;1.83;;;;;;;6.62;100.00;100370.13;4918252;29;20043;-90
2023/01/14 10:04:32;;;;;;;5.78;1.70;;;;;;;6.58;100.00;100344.38;4918576;29;20107;-92
2023/01/14 10:07:00;;;;;;;5.50;1.88;;;;;;;6.64;100.00;100340.00;4921960;29;20051;-91
2023/01/14 10:09:34;;;;;;;4.57;2.20;;;;;;;6.69;100.00;100340.00;4930379;29;20028;-90
2023/01/14 10:12:16;;;;;;;8.15;2.00;;;;;;;6.62;100.00;100313.41;4920084;29;20040;-90
2023/01/14 10:14:50;;;;;;;7.63;2.20;;;;;;;6.71;100.00;100301.28;4918909;29;20028;-92
2023/01/14 10:17:20;;;;;;;6.53;1.90;;;;;;;6.73;100.00;100297.81;4918762;29;20024;-91
2023/01/14 10:20:12;;;;;;;6.75;2.00;;;;;;;6.82;100.00;100290.88;4918634;29;20087;-89
2023/01/14 10:23:12;;;;;;;5.35;1.95;;;;;;;6.85;100.00;100298.59;4921858;29;20067;-92
2023/01/14 10:25:42;;;;;;;7.95;2.10;;;;;;;6.95;100.00;100261.53;4920075;29;20103;-90
2023/01/14 10:28:24;;;;;;;6.75;2.20;;;;;;;6.93;100.00;100256.38;4904336;29;20035;-90
2023/01/14 10:30:51;;;;;;;6.30;2.10;;;;;;;7.04;100.00;100247.69;4918364;29;20043;-93
2023/01/14 10:33:26;;;;;;;5.57;2.00;;;;;;;6.97;100.00;100246.88;4917463;29;20477;-93
2023/01/14 10:36:02;;;;;;;3.92;1.80;;;;;;;6.98;100.00;100232.28;4918008;29;20057;-92
2023/01/14 10:38:28;;;;;;;;;;;;;;;7.02;100.00;100234.81;4917605;29;20036;-92
2023/01/14 10:41:04;;;;;;;6.07;1.70;;;;;;;7.05;100.00;100229.59;4921579;29;19939;-92
2023/01/14 10:43:34;;;;;;;8.02;1.90;;;;;;;7.25;100.00;100207.88;4934123;29;20107;-93
2023/01/14 10:45:59;;;;;;;4.80;1.85;;;;;;;7.19;100.00;100198.50;4917533;29;20032;-92
2023/01/14 10:48:29;;;;;;;5.87;2.13;;;;;;;7.19;100.00;100190.75;4917565;29;20111;-92
2023/01/14 10:51:23;;;;;;;2.30;1.65;;;;;;;7.25;100.00;100192.41;4915141;29;20100;-93
2023/01/14 10:54:19;;;;;;;5.50;1.85;;;;;;;7.32;100.00;100188.88;4916332;29;20032;-93
2023/01/14 10:56:49;;;;;;;3.72;1.88;;;;;;;7.27;100.00;100167.41;4918148;29;20032;-93
2023/01/14 10:59:35;;;;;;;4.25;1.55;;;;;;;7.38;100.00;100175.88;4933215;29;20024;-93
2023/01/14 11:02:01;;;;;;;3.97;1.75;;;;;;;7.34;100.00;100156.16;4903265;29;20039;-91
2023/01/14 11:04:30;;;;;;;6.03;1.80;;;;;;;7.40;100.00;100150.88;4917185;29;20028;-92
2023/01/14 11:06:56;;;;;;;4.40;1.63;;;;;;;7.45;100.00;100132.75;4916674;29;20032;-92
2023/01/14 11:09:28;;;;;;;3.22;1.63;;;;;;;7.43;100.00;100137.06;4917873;29;20024;-92
2023/01/14 11:11:54;;;;;;;4.57;1.55;;;;;;;7.48;100.00;100119.81;4917013;29;20036;-92
2023/01/14 11:14:25;;;;;;;4.72;1.63;;;;;;;7.56;100.00;100115.38;4917929;29;20028;-92
2023/01/14 11:16:51;;;;;;;4.40;1.70;;;;;;;7.53;100.00;100114.56;4898963;29;20039;-91
2023/01/14 11:19:23;;;;;;;4.03;1.57;;;;;;;7.52;100.00;100099.94;4898723;29;20033;-91
2023/01/14 11:21:52;;;;;;;3.20;1.70;;;;;;;7.57;100.00;100095.59;4898449;29;20040;-91
2023/01/14 11:24:40;;;;;;;4.32;1.30;;;;;;;7.57;100.00;100099.00;4898851;29;20493;-92
2023/01/14 11:27:07;;;;;;;4.75;1.63;;;;;;;7.61;100.00;100084.31;4898221;29;20032;-91
2023/01/14 11:29:35;;;;;;;2.38;1.33;;;;;;;7.73;100.00;100071.22;4898710;29;20128;-91
2023/01/14 11:32:10;;;;;;;2.90;1.40;;;;;;;7.73;100.00;100071.22;4921998;29;20028;-91
2023/01/14 11:34:47;;;;;;;3.35;1.48;;;;;;;7.74;100.00;100066.91;4936926;29;20051;-92
2023/01/14 11:37:17;;;;;;;2.58;1.27;;;;;;;7.73;100.00;100067.78;4935517;29;20039;-91
2023/01/14 11:39:50;;;;;;;1.38;1.27;;;;;;;7.75;100.00;100050.53;4932392;29;20477;-92
2023/01/14 11:42:34;;;;;;;3.70;1.40;;;;;;;7.79;100.00;100052.19;4916394;29;20048;-92
2023/01/14 11:45:03;;;;;;;1.90;1.30;;;;;;;7.77;100.00;100035.84;4917582;29;20036;-92
2023/01/14 11:47:32;;;;;;;3.03;1.50;;;;;;;7.78;100.00;100042.72;4917459;29;20051;-92
2023/01/14 11:50:11;;;;;;;3.78;1.63;;;;;;;7.79;100.00;100044.44;4928119;29;20119;-93
2023/01/14 11:52:36;;;;;;;2.83;1.27;;;;;;;7.79;100.00;100039.25;4936451;29;20115;-92
2023/01/14 11:55:20;;;;;;;2.87;1.30;;;;;;;7.79;100.00;100026.34;4936834;29;20062;-93
2023/01/14 11:57:46;;;;;;;2.92;1.40;;;;;;;7.82;100.00;100025.47;4936030;29;20024;-92
2023/01/14 12:00:12;;;;;;;2.83;1.40;;;;;;;7.84;100.00;100016.81;4937070;29;20030;-93
2023/01/14 12:02:59;;;;;;;2.67;1.20;;;;;;;7.93;100.00;100004.59;4936481;29;20042;-92
2023/01/14 12:05:25;;;;;;;1.25;1.05;;;;;;;7.92;100.00;100002.88;4935850;29;20111;-95
2023/01/14 12:08:17;;;;;;;1.67;1.27;;;;;;;7.87;100.00;100014.19;4918529;29;20032;-94
2023/01/14 12:10:59;;;;;;;1.90;1.20;;;;;;;7.89;100.00;99991.72;4917488;29;20020;-94
2023/01/14 12:16:48;;;;;;;2.42;0.93;;;;;;;7.93;100.00;99981.34;4917958;29;20039;-93